createdAt,value
2022-11-29T00:03:45.819Z,-4.66159
2022-11-29T00:08:47.462Z,-5.22682
2022-11-29T00:13:49.191Z,-5.36463
2022-11-29T00:18:50.984Z,-5.13505
2022-11-29T00:23:52.594Z,-6.15563
2022-11-29T00:28:54.188Z,-6.03973
2022-11-29T00:33:56.037Z,-5.14362
2022-11-29T00:38:57.780Z,-5.33542
2022-11-29T00:43:59.530Z,-5.98828
2022-11-29T00:49:01.832Z,-5.77648
2022-11-29T00:54:03.640Z,-5.80094
2022-11-29T00:59:05.317Z,-4.97374
2022-11-29T01:04:07.080Z,-4.62158
2022-11-29T01:09:08.885Z,-4.47265
2022-11-29T01:14:10.585Z,-4.7667
2022-11-29T01:19:12.428Z,-5.02772
2022-11-29T01:24:14.138Z,-4.35357
2022-11-29T01:29:15.908Z,-4.60253
2022-11-29T01:34:17.789Z,-6.38584
2022-11-29T01:39:19.512Z,-6.14356
2022-11-29T01:44:21.519Z,-5.2427
2022-11-29T01:49:23.332Z,-4.60951
2022-11-29T01:54:25.176Z,-5.29382
2022-11-29T01:59:26.970Z,-5.3605
2022-11-29T02:04:28.854Z,-5.01787
2022-11-29T02:09:31.045Z,-5.8927
2022-11-29T02:14:32.857Z,-5.23476
2022-11-29T02:19:34.639Z,-6.08482
2022-11-29T02:24:36.674Z,-6.11403
2022-11-29T02:29:38.723Z,-5.498
2022-11-29T02:34:40.612Z,-5.7098
2022-11-29T02:39:42.502Z,-5.70948
2022-11-29T02:44:44.533Z,-5.78315
2022-11-29T02:49:46.558Z,-6.00892
2022-11-29T02:54:48.271Z,-5.84444
2022-11-29T02:59:50.001Z,-5.95272
2022-11-29T03:04:51.749Z,-5.49514
2022-11-29T03:09:53.376Z,-5.52563
2022-11-29T03:14:55.060Z,-5.2754
2022-11-29T03:19:56.755Z,-4.79877
2022-11-29T03:24:58.503Z,-4.8356
2022-11-29T03:30:00.170Z,-5.2862
2022-11-29T03:35:01.907Z,-6.0013
2022-11-29T03:40:03.723Z,-5.50181
2022-11-29T03:45:05.339Z,-5.86476
2022-11-29T03:50:06.981Z,-5.61835
2022-11-29T03:55:08.707Z,-5.15474
2022-11-29T04:00:10.353Z,-5.37702
2022-11-29T04:05:11.962Z,-5.53928
2022-11-29T04:10:13.633Z,-5.7206
2022-11-29T04:15:15.809Z,-5.54531
2022-11-29T04:20:17.652Z,-5.74949
2022-11-29T04:25:19.552Z,-5.93335
2022-11-29T04:30:21.354Z,-6.23787
2022-11-29T04:35:23.050Z,-6.26423
2022-11-29T04:40:24.776Z,-5.65614
2022-11-29T04:45:26.680Z,-6.49921
2022-11-29T04:50:28.416Z,-5.9686
2022-11-29T04:55:31.246Z,-5.64852
2022-11-29T05:00:33.199Z,-5.61105
2022-11-29T05:05:34.965Z,-5.2881
2022-11-29T05:10:36.675Z,-5.45196
2022-11-29T05:15:38.526Z,-5.56183
2022-11-29T05:20:40.263Z,-5.74791
2022-11-29T05:25:41.950Z,-6.10704
2022-11-29T05:30:43.637Z,-5.58247
2022-11-29T05:35:45.392Z,-5.53229
2022-11-29T05:40:47.103Z,-6.10355
2022-11-29T05:45:48.798Z,-6.86755
2022-11-29T05:50:50.430Z,-6.06291
2022-11-29T05:55:52.043Z,-5.50499
2022-11-29T06:00:53.956Z,-6.2366
2022-11-29T06:05:55.632Z,-5.38813
2022-11-29T06:10:57.448Z,-6.04671
2022-11-29T06:15:59.293Z,-6.66687
2022-11-29T06:21:01.059Z,-6.17246
2022-11-29T06:26:04.228Z,-5.9505
2022-11-29T06:31:06.459Z,-5.88667
2022-11-29T06:36:08.345Z,-6.49698
2022-11-29T06:41:10.137Z,-6.39315
2022-11-29T06:46:11.918Z,-5.71837
2022-11-29T06:51:13.751Z,-5.36209
2022-11-29T06:56:15.516Z,-6.22707
2022-11-29T07:01:17.381Z,-6.25565
2022-11-29T07:06:19.036Z,-5.66598
2022-11-29T07:11:20.860Z,-5.88985
2022-11-29T07:16:22.752Z,-5.75902
2022-11-29T07:21:24.844Z,-5.78284
2022-11-29T07:26:26.798Z,-6.0175
2022-11-29T07:31:28.677Z,-5.50372
2022-11-29T07:36:30.447Z,-5.86857
2022-11-29T07:41:32.118Z,-5.77363
2022-11-29T07:46:34.093Z,-6.27947
2022-11-29T07:51:35.837Z,-6.40426
2022-11-29T07:56:37.497Z,-6.42903
2022-11-29T08:01:39.437Z,-6.01432
2022-11-29T08:06:41.176Z,-6.68497
2022-11-29T08:11:42.855Z,-6.11054
2022-11-29T08:16:44.611Z,-6.40458
2022-11-29T08:21:46.328Z,-6.02639
2022-11-29T08:26:47.969Z,-6.4411
2022-11-29T08:31:49.821Z,-6.15309
2022-11-29T08:36:51.595Z,-5.71456
2022-11-29T08:41:53.816Z,-6.42077
2022-11-29T08:46:55.602Z,-7.04188
2022-11-29T08:51:57.392Z,-6.52747
2022-11-29T08:57:37.351Z,-6.85453
2022-11-29T09:02:40.888Z,-7.38863
2022-11-29T09:07:42.774Z,-6.8739
2022-11-29T09:12:44.552Z,-6.20961
2022-11-29T09:17:46.306Z,-6.70688
2022-11-29T09:22:48.024Z,-6.65893
2022-11-29T09:27:49.823Z,-6.8323
2022-11-29T09:32:51.436Z,-6.92026
2022-11-29T09:37:53.265Z,-6.28487
2022-11-29T09:42:54.973Z,-5.99876
2022-11-29T09:47:56.728Z,-6.43348
2022-11-29T09:52:58.562Z,-6.25216
2022-11-29T09:58:00.299Z,-6.56843
2022-11-29T10:03:01.983Z,-6.53636
2022-11-29T10:08:03.685Z,-6.5897
2022-11-29T10:13:05.307Z,-6.9463
2022-11-29T10:18:07.109Z,-7.14571
2022-11-29T10:23:08.780Z,-6.84564
2022-11-29T10:28:10.511Z,-6.3144
2022-11-29T10:33:12.355Z,-6.6005
2022-11-29T10:38:30.347Z,-6.80785
2022-11-29T10:43:33.328Z,-6.59542
2022-11-29T10:48:35.116Z,-6.48777
2022-11-29T10:53:36.820Z,-6.38489
2022-11-29T10:58:38.551Z,-6.07275
2022-11-29T11:03:40.208Z,-5.97177
2022-11-29T11:08:42.241Z,-6.64559
2022-11-29T11:13:43.955Z,-6.93233
2022-11-29T11:18:45.671Z,-6.91264
2022-11-29T11:23:47.421Z,-6.65988
2022-11-29T11:28:49.199Z,-6.59288
2022-11-29T11:33:50.842Z,-6.13975
2022-11-29T11:38:52.611Z,-5.87429
2022-11-29T11:43:54.258Z,-6.05402
2022-11-29T11:48:56.000Z,-5.72219
2022-11-29T11:53:57.946Z,-6.02861
2022-11-29T11:58:59.637Z,-5.85809
2022-11-29T12:04:01.529Z,-5.59549
2022-11-29T12:09:03.264Z,-6.67258
2022-11-29T12:14:04.991Z,-6.58526
2022-11-29T12:19:06.692Z,-6.39315
2022-11-29T12:24:08.506Z,-6.27026
2022-11-29T12:29:10.288Z,-6.67195
2022-11-29T12:34:12.072Z,-6.46745
2022-11-29T12:39:13.974Z,-5.92255
2022-11-29T12:44:15.677Z,-6.10133
2022-11-29T12:49:17.388Z,-6.88597
2022-11-29T12:54:19.067Z,-6.17214
2022-11-29T12:59:20.869Z,-6.61066
2022-11-29T13:04:22.600Z,-6.74593
2022-11-29T13:09:24.269Z,-6.15595
2022-11-29T13:14:43.182Z,-6.46364
2022-11-29T13:19:45.663Z,-5.82666
2022-11-29T13:24:47.807Z,-5.83332
2022-11-29T13:29:49.839Z,-7.36291
2022-11-29T13:34:51.600Z,-7.73823
2022-11-29T13:39:53.520Z,-8.18056
2022-11-29T13:44:55.271Z,-7.96876
2022-11-29T13:49:57.059Z,-7.79984
2022-11-29T13:54:58.843Z,-7.04982
2022-11-29T14:00:00.727Z,-6.82976
2022-11-29T14:05:02.591Z,-7.81095
2022-11-29T14:10:04.413Z,-8.319
2022-11-29T14:15:06.204Z,-8.65559
2022-11-29T14:20:08.542Z,-8.84166
2022-11-29T14:25:28.101Z,-9.36558
2022-11-29T14:30:51.284Z,-8.3895
2022-11-29T14:35:52.912Z,-8.0002
2022-11-29T14:40:56.369Z,-9.13411
2022-11-29T14:45:58.143Z,-8.79371
2022-11-29T14:50:59.763Z,-9.00932
2022-11-29T14:56:01.439Z,-9.36082
2022-11-29T15:01:09.667Z,-9.07632
2022-11-29T15:06:12.287Z,-9.16268
2022-11-29T15:11:14.086Z,-9.95047
2022-11-29T15:16:15.787Z,-8.57176
2022-11-29T15:21:17.474Z,-8.36917
2022-11-29T15:26:19.195Z,-9.22174
2022-11-29T15:31:20.971Z,-9.84188
2022-11-29T15:36:22.694Z,-10.68872
2022-11-29T15:41:24.324Z,-10.54361
2022-11-29T15:46:25.993Z,-10.22132
2022-11-29T15:51:27.625Z,-10.94369
2022-11-29T15:56:29.203Z,-9.73042
2022-11-29T16:01:31.172Z,-9.94825
2022-11-29T16:06:32.862Z,-10.10193
2022-11-29T16:11:34.504Z,-10.0597
2022-11-29T16:16:36.251Z,-8.59557
2022-11-29T16:21:38.027Z,-8.01608
2022-11-29T16:26:39.833Z,-8.90707
2022-11-29T16:31:41.769Z,-9.26874
2022-11-29T16:36:43.440Z,-10.03112
2022-11-29T16:41:45.061Z,-10.2645
2022-11-29T16:46:46.687Z,-9.07759
2022-11-29T16:51:48.557Z,-10.11368
2022-11-29T16:56:50.179Z,-9.009
2022-11-29T17:01:51.803Z,-8.38981
2022-11-29T17:06:53.655Z,-8.46412
2022-11-29T17:11:55.331Z,-7.67028
2022-11-29T17:16:57.112Z,-7.85763
2022-11-29T17:21:58.776Z,-7.86017
2022-11-29T17:27:00.389Z,-8.1777
2022-11-29T17:32:02.135Z,-8.33234
2022-11-29T17:37:03.855Z,-7.92272
2022-11-29T17:42:05.468Z,-8.3733
2022-11-29T17:47:07.197Z,-7.8046
2022-11-29T17:52:08.841Z,-8.97471
2022-11-29T17:57:10.486Z,-9.49958
2022-11-29T18:02:12.185Z,-9.625
2022-11-29T18:07:13.862Z,-8.93597
2022-11-29T18:12:15.489Z,-8.01227
2022-11-29T18:17:17.115Z,-8.12817
2022-11-29T18:22:18.731Z,-7.47024
2022-11-29T18:27:20.338Z,-7.62424
2022-11-29T18:32:21.994Z,-7.48548
2022-11-29T18:37:46.168Z,-7.06728
2022-11-29T18:42:59.096Z,-8.50984
2022-11-29T18:48:00.745Z,-7.87922
2022-11-29T18:53:02.438Z,-8.63971
2022-11-29T18:58:04.235Z,-8.2085
2022-11-29T19:03:05.878Z,-7.88906
2022-11-29T19:08:07.483Z,-7.38037
2022-11-29T19:13:09.124Z,-7.49119
2022-11-29T19:18:10.854Z,-7.89319
2022-11-29T19:23:12.898Z,-7.60169
2022-11-29T19:28:14.701Z,-7.52485
2022-11-29T19:33:16.340Z,-7.8227
2022-11-29T19:38:17.973Z,-7.92717
2022-11-29T19:43:19.827Z,-8.63558
2022-11-29T19:48:21.483Z,-8.17802
2022-11-29T19:53:23.185Z,-8.45935
2022-11-29T19:58:24.887Z,-8.05037
2022-11-29T20:03:26.593Z,-7.53819
2022-11-29T20:08:28.207Z,-7.45785
2022-11-29T20:13:29.891Z,-8.08847
2022-11-29T20:18:31.596Z,-7.95162
2022-11-29T20:23:33.352Z,-7.81889
2022-11-29T20:28:35.052Z,-6.92693
2022-11-29T20:33:36.748Z,-6.61638
2022-11-29T20:38:38.594Z,-6.71005
2022-11-29T20:43:40.483Z,-7.3429
2022-11-29T20:48:42.093Z,-7.51882
2022-11-29T20:53:43.758Z,-7.11174
2022-11-29T20:58:45.357Z,-7.46642
2022-11-29T21:03:47.053Z,-7.53946
2022-11-29T21:08:48.886Z,-7.51914
2022-11-29T21:13:50.550Z,-7.62424
2022-11-29T21:18:52.301Z,-6.62495
2022-11-29T21:23:53.955Z,-6.96281
2022-11-29T21:28:55.790Z,-7.39942
2022-11-29T21:33:57.483Z,-8.01608
2022-11-29T21:39:03.664Z,-7.24097
2022-11-29T21:44:08.035Z,-6.90248
2022-11-29T21:49:10.011Z,-6.67258
2022-11-29T21:54:11.939Z,-6.64242
2022-11-29T21:59:13.634Z,-6.50333
2022-11-29T22:04:15.333Z,-7.57597
2022-11-29T22:09:17.116Z,-7.9875
2022-11-29T22:14:18.973Z,-7.22129
2022-11-29T22:19:20.731Z,-6.84564
2022-11-29T22:24:22.373Z,-6.58685
2022-11-29T22:29:24.083Z,-7.0495
2022-11-29T22:34:25.959Z,-6.72942
2022-11-29T22:39:27.576Z,-6.26232
2022-11-29T22:44:29.302Z,-7.1889
2022-11-29T22:49:31.051Z,-7.16318
2022-11-29T22:54:32.662Z,-6.87612
2022-11-29T22:59:34.269Z,-6.3471
2022-11-29T23:04:35.973Z,-6.19183
2022-11-29T23:09:37.513Z,-7.06347
2022-11-29T23:14:39.166Z,-6.61955
2022-11-29T23:19:40.821Z,-6.7091
2022-11-29T23:24:42.473Z,-6.70338
2022-11-29T23:29:44.167Z,-6.49984
2022-11-29T23:34:46.119Z,-6.2312
2022-11-29T23:39:47.956Z,-6.24549
2022-11-29T23:44:49.585Z,-7.542
2022-11-29T23:49:51.154Z,-7.37148
2022-11-29T23:54:52.951Z,-6.44554
2022-11-29T23:59:54.696Z,-6.20485
